createdAt,value
2023-04-29T00:00:34.345Z,47.04
2023-04-29T00:01:34.391Z,47.01
2023-04-29T00:02:34.516Z,46.98
2023-04-29T00:03:34.741Z,46.98
2023-04-29T00:04:34.632Z,46.98
2023-04-29T00:05:34.683Z,46.98
2023-04-29T00:06:34.587Z,46.96
2023-04-29T00:07:34.671Z,46.95
2023-04-29T00:08:34.704Z,46.98
2023-04-29T00:09:34.744Z,46.99
2023-04-29T00:10:34.748Z,46.97
2023-04-29T00:11:34.792Z,46.94
2023-04-29T00:12:34.838Z,46.93
2023-04-29T00:13:34.880Z,46.95
2023-04-29T00:14:34.921Z,46.94
2023-04-29T00:15:34.945Z,46.95
2023-04-29T00:16:35.004Z,46.90
2023-04-29T00:17:35.116Z,46.88
2023-04-29T00:18:35.128Z,46.91
2023-04-29T00:19:35.213Z,46.91
2023-04-29T00:20:35.232Z,46.95
2023-04-29T00:21:35.302Z,46.93
2023-04-29T00:22:35.412Z,46.89
2023-04-29T00:23:35.429Z,46.87
2023-04-29T00:24:35.462Z,46.88
2023-04-29T00:25:35.494Z,46.89
2023-04-29T00:26:35.507Z,46.88
2023-04-29T00:27:35.568Z,46.87
2023-04-29T00:28:35.568Z,46.88
2023-04-29T00:29:35.618Z,46.88
2023-04-29T00:30:36.525Z,46.84
2023-04-29T00:31:35.758Z,46.85
2023-04-29T00:32:35.759Z,46.84
2023-04-29T00:33:35.753Z,46.85
2023-04-29T00:34:35.803Z,46.84
2023-04-29T00:35:35.848Z,46.83
2023-04-29T00:36:35.847Z,46.81
2023-04-29T00:37:35.885Z,46.81
2023-04-29T00:38:35.940Z,46.78
2023-04-29T00:39:36.034Z,46.82
2023-04-29T00:40:35.997Z,46.81
2023-04-29T00:41:36.085Z,46.84
2023-04-29T00:42:36.103Z,46.82
2023-04-29T00:43:36.117Z,46.81
2023-04-29T00:44:36.154Z,46.78
2023-04-29T00:45:36.147Z,46.82
2023-04-29T00:46:36.194Z,46.78
2023-04-29T00:47:36.239Z,46.77
2023-04-29T00:48:36.230Z,46.76
2023-04-29T00:49:36.325Z,46.77
2023-04-29T00:50:36.299Z,46.77
2023-04-29T00:51:36.351Z,46.78
2023-04-29T00:52:36.352Z,46.77
2023-04-29T00:53:36.469Z,46.77
2023-04-29T00:54:36.486Z,46.74
2023-04-29T00:55:36.498Z,46.77
2023-04-29T00:56:36.578Z,46.73
2023-04-29T00:57:36.577Z,46.71
2023-04-29T00:58:36.622Z,46.74
2023-04-29T00:59:36.682Z,46.70
2023-04-29T01:00:36.718Z,46.73
2023-04-29T01:01:36.798Z,46.75
2023-04-29T01:02:36.817Z,46.74
2023-04-29T01:03:36.985Z,46.75
2023-04-29T01:04:36.919Z,46.69
2023-04-29T01:05:36.950Z,46.69
2023-04-29T01:06:36.949Z,46.74
2023-04-29T01:07:36.994Z,46.75
2023-04-29T01:08:37.037Z,46.69
2023-04-29T01:09:37.124Z,46.71
2023-04-29T01:10:37.142Z,46.72
2023-04-29T01:11:37.215Z,46.69
2023-04-29T01:12:37.222Z,46.69
2023-04-29T01:13:37.247Z,46.69
2023-04-29T01:14:37.299Z,46.70
2023-04-29T01:15:37.335Z,46.70
2023-04-29T01:16:37.554Z,46.65
2023-04-29T01:17:37.399Z,46.68
2023-04-29T01:18:37.445Z,46.66
2023-04-29T01:19:37.490Z,46.66
2023-04-29T01:20:37.504Z,46.66
2023-04-29T01:21:37.520Z,46.67
2023-04-29T01:22:37.507Z,46.65
2023-04-29T01:23:37.544Z,46.63
2023-04-29T01:24:37.573Z,46.62
2023-04-29T01:25:37.582Z,46.57
2023-04-29T01:26:37.594Z,46.62
2023-04-29T01:27:37.616Z,46.60
2023-04-29T01:28:37.633Z,46.58
2023-04-29T01:29:37.663Z,46.59
2023-04-29T01:30:37.683Z,46.59
2023-04-29T01:31:37.736Z,46.59
2023-04-29T01:32:37.804Z,46.57
2023-04-29T01:33:37.778Z,46.61
2023-04-29T01:34:37.789Z,46.55
2023-04-29T01:35:37.814Z,46.57
2023-04-29T01:36:37.851Z,46.54
2023-04-29T01:37:37.904Z,46.55
2023-04-29T01:38:37.937Z,46.55
2023-04-29T01:39:37.984Z,46.54
2023-04-29T01:40:38.029Z,46.54
2023-04-29T01:41:38.058Z,46.62
2023-04-29T01:42:38.131Z,46.56
2023-04-29T01:43:38.179Z,46.53
2023-04-29T01:44:38.231Z,46.54
2023-04-29T01:45:38.243Z,46.52
2023-04-29T01:46:38.273Z,46.53
2023-04-29T01:47:38.363Z,46.52
2023-04-29T01:48:38.366Z,46.51
2023-04-29T01:49:38.416Z,46.46
2023-04-29T01:50:38.416Z,46.53
2023-04-29T01:51:38.523Z,46.48
2023-04-29T01:52:38.521Z,46.46
2023-04-29T01:53:38.552Z,46.47
2023-04-29T01:54:38.602Z,46.44
2023-04-29T01:55:38.618Z,46.48
2023-04-29T01:56:38.622Z,46.46
2023-04-29T01:57:38.705Z,46.48
2023-04-29T01:58:38.770Z,46.40
2023-04-29T01:59:38.803Z,46.42
2023-04-29T02:00:38.906Z,46.43
2023-04-29T02:01:38.886Z,46.39
2023-04-29T02:02:38.967Z,46.41
2023-04-29T02:03:39.184Z,46.41
2023-04-29T02:04:39.067Z,46.41
2023-04-29T02:05:39.024Z,46.39
2023-04-29T02:06:39.053Z,46.40
2023-04-29T02:07:39.114Z,46.37
2023-04-29T02:08:39.136Z,46.33
2023-04-29T02:09:39.210Z,46.35
2023-04-29T02:10:39.208Z,46.35
2023-04-29T02:11:39.252Z,46.34
2023-04-29T02:12:39.238Z,46.36
2023-04-29T02:13:39.316Z,46.36
2023-04-29T02:14:39.390Z,46.37
2023-04-29T02:15:39.423Z,46.31
2023-04-29T02:16:39.495Z,46.31
2023-04-29T02:17:39.528Z,46.31
2023-04-29T02:18:39.574Z,46.34
2023-04-29T02:19:39.589Z,46.33
2023-04-29T02:20:39.621Z,46.32
2023-04-29T02:21:39.674Z,46.29
2023-04-29T02:22:39.710Z,46.28
2023-04-29T02:23:39.715Z,46.31
2023-04-29T02:24:39.786Z,46.31
2023-04-29T02:25:39.816Z,46.32
2023-04-29T02:26:39.854Z,46.32
2023-04-29T02:27:39.888Z,46.31
2023-04-29T02:28:39.916Z,46.28
2023-04-29T02:29:40.035Z,46.33
2023-04-29T02:30:40.030Z,46.29
2023-04-29T02:31:40.109Z,46.26
2023-04-29T02:32:40.127Z,46.24
2023-04-29T02:33:40.203Z,46.23
2023-04-29T02:34:40.282Z,46.24
2023-04-29T02:35:40.309Z,46.24
2023-04-29T02:36:40.374Z,46.22
2023-04-29T02:37:40.499Z,46.22
2023-04-29T02:38:40.431Z,46.24
2023-04-29T02:39:40.479Z,46.24
2023-04-29T02:40:40.426Z,46.19
2023-04-29T02:41:40.413Z,46.19
2023-04-29T02:42:40.394Z,46.18
2023-04-29T02:43:40.379Z,46.20
2023-04-29T02:44:40.396Z,46.17
2023-04-29T02:45:40.431Z,46.17
2023-04-29T02:46:40.381Z,46.17
2023-04-29T02:47:40.496Z,46.12
2023-04-29T02:48:40.374Z,46.13
2023-04-29T02:49:40.404Z,46.14
2023-04-29T02:50:40.426Z,46.15
2023-04-29T02:51:40.427Z,46.13
2023-04-29T02:52:40.519Z,46.10
2023-04-29T02:53:40.467Z,46.12
2023-04-29T02:54:40.555Z,46.07
2023-04-29T02:55:40.526Z,46.11
2023-04-29T02:56:40.556Z,46.09
2023-04-29T02:57:40.575Z,46.14
2023-04-29T02:58:40.580Z,46.11
2023-04-29T02:59:40.619Z,46.09
2023-04-29T03:00:40.645Z,46.07
2023-04-29T03:01:40.770Z,46.10
2023-04-29T03:02:40.786Z,46.06
2023-04-29T03:03:40.811Z,46.06
2023-04-29T03:04:40.717Z,46.01
2023-04-29T03:05:40.733Z,45.99
2023-04-29T03:06:40.751Z,46.03
2023-04-29T03:07:40.754Z,45.99
2023-04-29T03:08:40.776Z,45.96
2023-04-29T03:09:40.797Z,45.97
2023-04-29T03:10:41.825Z,45.97
2023-04-29T03:11:40.822Z,45.96
2023-04-29T03:12:40.849Z,45.95
2023-04-29T03:13:40.838Z,45.93
2023-04-29T03:14:40.858Z,45.92
2023-04-29T03:15:40.839Z,45.94
2023-04-29T03:16:40.935Z,45.95
2023-04-29T03:17:40.904Z,45.92
2023-04-29T03:18:40.878Z,45.92
2023-04-29T03:19:40.903Z,45.90
2023-04-29T03:20:40.922Z,45.89
2023-04-29T03:21:40.930Z,45.89
2023-04-29T03:22:40.970Z,45.91
2023-04-29T03:23:40.978Z,45.89
2023-04-29T03:24:40.946Z,45.89
2023-04-29T03:25:41.048Z,45.88
2023-04-29T03:26:41.006Z,45.84
2023-04-29T03:27:41.006Z,45.86
2023-04-29T03:28:41.026Z,45.86
2023-04-29T03:29:41.013Z,45.87
2023-04-29T03:30:41.037Z,45.87
2023-04-29T03:31:41.084Z,45.86
2023-04-29T03:32:41.073Z,45.87
2023-04-29T03:33:41.094Z,45.86
2023-04-29T03:34:41.070Z,45.83
2023-04-29T03:35:41.066Z,45.83
2023-04-29T03:36:41.094Z,45.83
2023-04-29T03:37:41.141Z,45.80
2023-04-29T03:38:42.949Z,45.79
2023-04-29T03:39:41.288Z,45.79
2023-04-29T03:40:41.173Z,45.80
2023-04-29T03:41:41.219Z,45.72
2023-04-29T03:42:41.218Z,45.74
2023-04-29T03:43:41.225Z,45.77
2023-04-29T03:44:41.216Z,45.72
2023-04-29T03:45:41.262Z,45.73
2023-04-29T03:46:41.428Z,45.70
2023-04-29T03:47:41.334Z,45.73
2023-04-29T03:48:41.329Z,45.73
2023-04-29T03:49:41.366Z,45.69
2023-04-29T03:50:41.401Z,45.73
2023-04-29T03:51:41.404Z,45.70
2023-04-29T03:52:41.458Z,45.72
2023-04-29T03:53:41.440Z,45.70
2023-04-29T03:54:41.466Z,45.70
2023-04-29T03:55:41.503Z,45.70
2023-04-29T03:56:41.529Z,45.67
2023-04-29T03:57:42.627Z,45.73
2023-04-29T03:58:41.551Z,45.69
2023-04-29T03:59:41.524Z,45.72
2023-04-29T04:00:41.556Z,45.70
2023-04-29T04:01:41.610Z,45.66
2023-04-29T04:02:41.740Z,45.66
2023-04-29T04:03:41.785Z,45.64
2023-04-29T04:04:41.874Z,45.68
2023-04-29T04:05:41.770Z,45.64
2023-04-29T04:06:41.805Z,45.62
2023-04-29T04:07:41.839Z,45.60
2023-04-29T04:08:42.382Z,45.60
2023-04-29T04:09:42.007Z,45.66
2023-04-29T04:10:41.952Z,45.60
2023-04-29T04:11:41.955Z,45.60
2023-04-29T04:12:44.142Z,45.59
2023-04-29T04:13:42.007Z,45.62
2023-04-29T04:14:41.998Z,45.63
2023-04-29T04:15:42.062Z,45.59
2023-04-29T04:16:42.258Z,45.64
2023-04-29T04:17:42.128Z,45.61
2023-04-29T04:18:42.040Z,45.59
2023-04-29T04:19:42.033Z,45.59
2023-04-29T04:20:42.174Z,45.58
2023-04-29T04:21:42.110Z,45.58
2023-04-29T04:22:42.128Z,45.57
2023-04-29T04:23:42.136Z,45.54
2023-04-29T04:24:42.148Z,45.58
2023-04-29T04:25:42.183Z,45.58
2023-04-29T04:26:42.214Z,45.55
2023-04-29T04:27:42.202Z,45.56
2023-04-29T04:28:42.225Z,45.53
2023-04-29T04:29:42.226Z,45.51
2023-04-29T04:30:42.270Z,45.53
2023-04-29T04:31:43.026Z,45.51
2023-04-29T04:32:42.273Z,45.51
2023-04-29T04:33:42.237Z,45.49
2023-04-29T04:34:42.273Z,45.48
2023-04-29T04:35:42.289Z,45.45
2023-04-29T04:36:42.263Z,45.44
2023-04-29T04:37:42.285Z,45.46
2023-04-29T04:38:42.284Z,45.43
2023-04-29T04:39:42.362Z,45.44
2023-04-29T04:40:42.263Z,45.47
2023-04-29T04:41:42.260Z,45.44
2023-04-29T04:42:42.307Z,45.44
2023-04-29T04:43:42.327Z,45.40
2023-04-29T04:44:42.373Z,45.44
2023-04-29T04:45:42.362Z,45.40
2023-04-29T04:46:42.298Z,45.40
2023-04-29T04:47:42.346Z,45.39
2023-04-29T04:48:42.319Z,45.38
2023-04-29T04:49:42.279Z,45.40
2023-04-29T04:50:42.331Z,45.39
2023-04-29T04:51:42.278Z,45.40
2023-04-29T04:52:42.293Z,45.34
2023-04-29T04:53:42.303Z,45.35
2023-04-29T04:54:42.321Z,45.36
2023-04-29T04:55:42.344Z,45.35
2023-04-29T04:56:42.297Z,45.33
2023-04-29T04:57:42.358Z,45.34
2023-04-29T04:58:42.344Z,45.34
2023-04-29T04:59:42.311Z,45.32
2023-04-29T05:00:42.326Z,45.35
2023-04-29T05:01:42.386Z,45.35
2023-04-29T05:02:42.506Z,45.35
2023-04-29T05:03:42.538Z,45.28
2023-04-29T05:04:42.389Z,45.35
2023-04-29T05:05:42.398Z,45.30
2023-04-29T05:06:42.396Z,45.29
2023-04-29T05:07:42.409Z,45.29
2023-04-29T05:08:42.385Z,45.29
2023-04-29T05:09:42.376Z,45.26
2023-04-29T05:10:42.404Z,45.31
2023-04-29T05:11:42.404Z,45.29
2023-04-29T05:12:42.405Z,45.29
2023-04-29T05:13:42.413Z,45.31
2023-04-29T05:14:42.410Z,45.30
2023-04-29T05:15:42.941Z,45.30
2023-04-29T05:16:42.427Z,45.31
2023-04-29T05:17:42.434Z,45.28
2023-04-29T05:18:42.455Z,45.27
2023-04-29T05:19:42.459Z,45.25
2023-04-29T05:20:42.413Z,45.22
2023-04-29T05:21:42.467Z,45.25
2023-04-29T05:22:42.451Z,45.24
2023-04-29T05:23:42.498Z,45.22
2023-04-29T05:24:42.506Z,45.21
2023-04-29T05:25:42.512Z,45.25
2023-04-29T05:26:42.509Z,45.25
2023-04-29T05:27:42.518Z,45.16
2023-04-29T05:28:42.550Z,45.19
2023-04-29T05:29:42.548Z,45.21
2023-04-29T05:30:42.548Z,45.16
2023-04-29T05:31:42.547Z,45.14
2023-04-29T05:32:42.579Z,45.17
2023-04-29T05:33:42.539Z,45.19
2023-04-29T05:34:42.574Z,45.18
2023-04-29T05:35:42.546Z,45.21
2023-04-29T05:36:42.533Z,45.16
2023-04-29T05:37:42.547Z,45.16
2023-04-29T05:38:42.534Z,45.15
2023-04-29T05:39:42.590Z,45.16
2023-04-29T05:40:42.598Z,45.13
2023-04-29T05:41:42.608Z,45.15
2023-04-29T05:42:42.632Z,45.18
2023-04-29T05:43:42.609Z,45.17
2023-04-29T05:44:42.690Z,45.16
2023-04-29T05:45:42.700Z,45.13
2023-04-29T05:46:42.805Z,45.17
2023-04-29T05:47:42.794Z,45.15
2023-04-29T05:48:42.768Z,45.15
2023-04-29T05:49:42.778Z,45.14
2023-04-29T05:50:42.798Z,45.13
2023-04-29T05:51:42.786Z,45.14
2023-04-29T05:52:42.806Z,45.13
2023-04-29T05:53:42.798Z,45.14
2023-04-29T05:54:42.831Z,45.08
2023-04-29T05:55:42.841Z,45.15
2023-04-29T05:56:42.905Z,45.03
2023-04-29T05:57:42.929Z,45.04
2023-04-29T05:58:42.944Z,45.09
2023-04-29T05:59:42.946Z,45.08
2023-04-29T06:00:42.943Z,45.10
2023-04-29T06:01:42.969Z,45.16
2023-04-29T06:02:54.683Z,45.12
2023-04-29T06:03:44.126Z,45.14
2023-04-29T06:04:43.095Z,45.10
2023-04-29T06:05:43.262Z,45.09
2023-04-29T06:06:42.932Z,45.05
2023-04-29T06:07:42.958Z,45.07
2023-04-29T06:08:42.938Z,45.01
2023-04-29T06:09:42.928Z,45.03
2023-04-29T06:10:42.934Z,45.07
2023-04-29T06:11:42.905Z,45.06
2023-04-29T06:12:42.916Z,45.00
2023-04-29T06:13:42.906Z,45.02
2023-04-29T06:14:42.895Z,45.00
2023-04-29T06:15:42.954Z,45.02
2023-04-29T06:16:42.883Z,44.98
2023-04-29T06:17:42.922Z,44.98
2023-04-29T06:18:42.872Z,45.01
2023-04-29T06:19:42.866Z,44.97
2023-04-29T06:20:42.897Z,44.97
2023-04-29T06:21:42.835Z,44.96
2023-04-29T06:22:42.844Z,44.96
2023-04-29T06:23:42.894Z,44.92
2023-04-29T06:24:42.958Z,44.94
2023-04-29T06:25:43.023Z,44.94
2023-04-29T06:26:43.013Z,44.93
2023-04-29T06:27:43.050Z,44.98
2023-04-29T06:28:43.083Z,44.93
2023-04-29T06:29:43.100Z,44.93
2023-04-29T06:30:43.147Z,44.92
2023-04-29T06:31:43.213Z,44.91
2023-04-29T06:32:43.203Z,44.91
2023-04-29T06:33:43.216Z,44.94
2023-04-29T06:34:43.234Z,44.92
2023-04-29T06:35:43.289Z,44.92
2023-04-29T06:36:43.296Z,44.94
2023-04-29T06:37:43.357Z,44.89
2023-04-29T06:38:43.377Z,44.85
2023-04-29T06:39:43.426Z,44.87
2023-04-29T06:40:43.504Z,44.82
2023-04-29T06:41:43.499Z,44.81
2023-04-29T06:42:43.586Z,44.83
2023-04-29T06:43:43.645Z,44.81
2023-04-29T06:44:43.685Z,44.83
2023-04-29T06:45:43.724Z,44.87
2023-04-29T06:46:43.829Z,44.81
2023-04-29T06:47:43.907Z,44.83
2023-04-29T06:48:43.910Z,44.75
2023-04-29T06:49:43.949Z,44.78
2023-04-29T06:50:43.994Z,44.83
2023-04-29T06:51:44.099Z,44.82
2023-04-29T06:52:44.140Z,44.74
2023-04-29T06:53:44.189Z,44.77
2023-04-29T06:54:44.269Z,44.76
2023-04-29T06:55:44.331Z,44.78
2023-04-29T06:56:44.370Z,44.80
2023-04-29T06:57:44.460Z,44.76
2023-04-29T06:58:44.516Z,44.78
2023-04-29T06:59:44.567Z,44.79
2023-04-29T07:00:44.690Z,44.79
2023-04-29T07:01:46.101Z,44.75
2023-04-29T07:02:44.770Z,44.79
2023-04-29T07:03:44.910Z,44.84
2023-04-29T07:04:44.938Z,44.81
2023-04-29T07:05:44.931Z,44.73
2023-04-29T07:06:44.987Z,44.76
2023-04-29T07:07:45.035Z,44.77
2023-04-29T07:08:45.097Z,44.73
2023-04-29T07:09:45.217Z,44.73
2023-04-29T07:10:45.218Z,44.79
2023-04-29T07:11:45.257Z,44.77
2023-04-29T07:12:45.413Z,44.80
2023-04-29T07:13:45.336Z,44.77
2023-04-29T07:14:45.443Z,44.75
2023-04-29T07:15:45.456Z,44.77
2023-04-29T07:16:45.650Z,44.77
2023-04-29T07:17:45.608Z,44.80
2023-04-29T07:18:45.612Z,44.77
2023-04-29T07:19:45.703Z,44.81
2023-04-29T07:20:45.775Z,44.78
2023-04-29T07:21:45.794Z,44.78
2023-04-29T07:22:45.836Z,44.81
2023-04-29T07:23:45.916Z,44.78
2023-04-29T07:24:45.964Z,44.77
2023-04-29T07:25:46.024Z,44.76
2023-04-29T07:26:46.065Z,44.76
2023-04-29T07:27:46.128Z,44.80
2023-04-29T07:28:46.182Z,44.76
2023-04-29T07:29:46.264Z,44.79
2023-04-29T07:30:46.333Z,44.83
2023-04-29T07:31:46.351Z,44.82
2023-04-29T07:32:46.474Z,44.80
2023-04-29T07:33:46.479Z,44.78
2023-04-29T07:34:46.505Z,44.80
2023-04-29T07:35:46.542Z,44.74
2023-04-29T07:36:46.606Z,44.73
2023-04-29T07:37:46.642Z,44.72
2023-04-29T07:38:46.679Z,44.74
2023-04-29T07:39:46.714Z,44.71
2023-04-29T07:40:46.792Z,44.73
2023-04-29T07:41:46.834Z,44.74
2023-04-29T07:42:46.864Z,44.74
2023-04-29T07:43:46.953Z,44.73
2023-04-29T07:44:46.983Z,44.74
2023-04-29T07:45:47.038Z,44.75
2023-04-29T07:46:47.105Z,44.75
2023-04-29T07:47:47.664Z,44.76
2023-04-29T07:48:47.158Z,44.73
2023-04-29T07:49:47.201Z,44.73
2023-04-29T07:50:47.267Z,44.71
2023-04-29T07:51:47.325Z,44.70
2023-04-29T07:52:47.361Z,44.69
2023-04-29T07:53:47.425Z,44.70
2023-04-29T07:54:47.481Z,44.70
2023-04-29T07:55:47.537Z,44.67
2023-04-29T07:56:47.527Z,44.66
2023-04-29T07:57:47.629Z,44.62
2023-04-29T07:58:47.615Z,44.62
2023-04-29T07:59:47.679Z,44.57
2023-04-29T08:00:47.707Z,44.59
2023-04-29T08:01:47.746Z,44.60
2023-04-29T08:02:47.893Z,44.61
2023-04-29T08:03:47.977Z,44.56
2023-04-29T08:04:48.132Z,44.53
2023-04-29T08:05:47.907Z,44.57
2023-04-29T08:06:47.923Z,44.51
2023-04-29T08:07:47.998Z,44.51
2023-04-29T08:08:47.994Z,44.48
2023-04-29T08:09:48.041Z,44.48
2023-04-29T08:10:48.089Z,44.47
2023-04-29T08:11:48.082Z,44.45
2023-04-29T08:12:48.160Z,44.45
2023-04-29T08:13:48.218Z,44.45
2023-04-29T08:14:48.220Z,44.38
2023-04-29T08:15:48.277Z,44.41
2023-04-29T08:16:48.299Z,44.41
2023-04-29T08:17:48.375Z,44.39
2023-04-29T08:18:48.324Z,44.38
2023-04-29T08:19:48.372Z,44.35
2023-04-29T08:20:48.405Z,44.33
2023-04-29T08:21:48.448Z,44.34
2023-04-29T08:22:48.448Z,44.33
2023-04-29T08:23:48.488Z,44.33
2023-04-29T08:24:48.519Z,44.31
2023-04-29T08:25:48.543Z,44.30
2023-04-29T08:26:48.548Z,44.28
2023-04-29T08:27:48.585Z,44.29
2023-04-29T08:28:48.591Z,44.26
2023-04-29T08:29:48.634Z,44.25
2023-04-29T08:30:48.666Z,44.25
2023-04-29T08:31:48.687Z,44.24
2023-04-29T08:32:48.762Z,44.22
2023-04-29T08:33:48.695Z,44.18
2023-04-29T08:34:48.747Z,44.17
2023-04-29T08:35:48.778Z,44.21
2023-04-29T08:36:48.791Z,44.16
2023-04-29T08:37:48.833Z,44.15
2023-04-29T08:38:48.849Z,44.15
2023-04-29T08:39:48.840Z,44.17
2023-04-29T08:40:48.889Z,44.15
2023-04-29T08:41:49.052Z,44.14
2023-04-29T08:42:49.253Z,44.13
2023-04-29T08:43:48.967Z,44.14
2023-04-29T08:44:48.926Z,44.15
2023-04-29T08:45:49.013Z,44.12
2023-04-29T08:46:48.997Z,44.09
2023-04-29T08:47:49.092Z,44.10
2023-04-29T08:48:49.084Z,44.07
2023-04-29T08:49:49.107Z,44.06
2023-04-29T08:50:49.086Z,44.05
2023-04-29T08:51:49.128Z,44.05
2023-04-29T08:52:49.136Z,44.04
2023-04-29T08:53:49.101Z,44.03
2023-04-29T08:54:50.111Z,44.02
2023-04-29T08:55:49.408Z,44.01
2023-04-29T08:56:49.169Z,43.99
2023-04-29T08:57:49.279Z,43.96
2023-04-29T08:58:49.226Z,43.94
2023-04-29T08:59:49.215Z,43.96
2023-04-29T09:00:49.266Z,43.95
2023-04-29T09:01:49.240Z,43.96
2023-04-29T09:02:49.272Z,43.90
2023-04-29T09:03:49.402Z,43.94
2023-04-29T09:04:49.309Z,43.89
2023-04-29T09:05:49.282Z,43.89
2023-04-29T09:06:49.279Z,43.87
2023-04-29T09:07:49.295Z,43.86
2023-04-29T09:08:49.317Z,43.87
2023-04-29T09:09:49.334Z,43.82
2023-04-29T09:10:49.322Z,43.81
2023-04-29T09:11:49.333Z,43.81
2023-04-29T09:12:49.335Z,43.81
2023-04-29T09:13:49.364Z,43.79
2023-04-29T09:14:49.383Z,43.80
2023-04-29T09:15:49.379Z,43.80
2023-04-29T09:16:49.515Z,43.78
2023-04-29T09:17:49.415Z,43.75
2023-04-29T09:18:49.470Z,43.76
2023-04-29T09:19:49.429Z,43.70
2023-04-29T09:20:49.471Z,43.70
2023-04-29T09:21:49.484Z,43.67
2023-04-29T09:22:49.461Z,43.69
2023-04-29T09:23:49.485Z,43.68
2023-04-29T09:24:49.494Z,43.68
2023-04-29T09:25:49.520Z,43.71
2023-04-29T09:26:51.791Z,43.71
2023-04-29T09:27:49.547Z,43.68
2023-04-29T09:28:49.563Z,43.65
2023-04-29T09:29:49.557Z,43.65
2023-04-29T09:30:49.600Z,43.66
2023-04-29T09:31:49.624Z,43.64
2023-04-29T09:32:49.670Z,43.65
2023-04-29T09:33:49.615Z,43.64
2023-04-29T09:34:49.627Z,43.61
2023-04-29T09:35:49.623Z,43.61
2023-04-29T09:36:49.680Z,43.59
2023-04-29T09:37:49.669Z,43.61
2023-04-29T09:38:49.749Z,43.61
2023-04-29T09:39:49.763Z,43.55
2023-04-29T09:40:58.821Z,43.55
2023-04-29T09:41:50.717Z,43.55
2023-04-29T09:42:49.779Z,43.53
2023-04-29T09:43:49.716Z,43.55
2023-04-29T09:44:49.725Z,43.57
2023-04-29T09:45:49.767Z,43.55
2023-04-29T09:46:49.696Z,43.54
2023-04-29T09:47:49.729Z,43.51
2023-04-29T09:48:49.702Z,43.47
2023-04-29T09:49:49.707Z,43.44
2023-04-29T09:50:49.690Z,43.44
2023-04-29T09:51:49.687Z,43.45
2023-04-29T09:52:49.663Z,43.47
2023-04-29T09:53:49.691Z,43.43
2023-04-29T09:54:49.655Z,43.40
2023-04-29T09:55:49.662Z,43.39
2023-04-29T09:56:49.645Z,43.39
2023-04-29T09:57:49.655Z,43.36
2023-04-29T09:58:49.672Z,43.35
2023-04-29T09:59:49.643Z,43.35
2023-04-29T10:00:49.621Z,43.37
2023-04-29T10:01:49.694Z,43.40
2023-04-29T10:02:49.681Z,43.40
2023-04-29T10:03:49.640Z,43.42
2023-04-29T10:04:49.647Z,43.45
2023-04-29T10:05:49.601Z,43.48
2023-04-29T10:06:49.649Z,43.46
2023-04-29T10:07:49.622Z,43.46
2023-04-29T10:08:49.631Z,43.49
2023-04-29T10:09:49.655Z,43.50
2023-04-29T10:10:49.694Z,43.49
2023-04-29T10:11:49.710Z,43.46
2023-04-29T10:12:49.725Z,43.47
2023-04-29T10:13:49.702Z,43.45
2023-04-29T10:14:49.729Z,43.46
2023-04-29T10:15:49.770Z,43.46
2023-04-29T10:16:49.799Z,43.47
2023-04-29T10:17:49.814Z,43.45
2023-04-29T10:18:49.800Z,43.41
2023-04-29T10:19:49.803Z,43.41
2023-04-29T10:20:49.795Z,43.39
2023-04-29T10:21:49.999Z,43.37
2023-04-29T10:22:49.901Z,43.39
2023-04-29T10:23:49.906Z,43.39
2023-04-29T10:24:49.914Z,43.37
2023-04-29T10:25:49.889Z,43.35
2023-04-29T10:26:49.907Z,43.33
2023-04-29T10:27:49.936Z,43.30
2023-04-29T10:28:50.029Z,43.29
2023-04-29T10:29:50.083Z,43.27
2023-04-29T10:30:50.076Z,43.25
2023-04-29T10:31:50.197Z,43.28
2023-04-29T10:32:52.037Z,43.26
2023-04-29T10:33:50.075Z,43.21
2023-04-29T10:34:50.092Z,43.24
2023-04-29T10:35:50.033Z,43.21
2023-04-29T10:36:50.110Z,43.18
2023-04-29T10:37:50.002Z,43.24
2023-04-29T10:38:49.999Z,43.27
2023-04-29T10:39:50.079Z,43.26
2023-04-29T10:40:50.015Z,43.25
2023-04-29T10:41:49.991Z,43.24
2023-04-29T10:42:50.018Z,43.24
2023-04-29T10:43:49.976Z,43.24
2023-04-29T10:44:49.975Z,43.21
2023-04-29T10:45:49.974Z,43.20
2023-04-29T10:46:50.012Z,43.17
2023-04-29T10:47:49.967Z,43.14
2023-04-29T10:48:49.965Z,43.16
2023-04-29T10:49:49.959Z,43.14
2023-04-29T10:50:50.035Z,43.15
2023-04-29T10:51:49.964Z,43.10
2023-04-29T10:52:49.907Z,43.07
2023-04-29T10:53:49.908Z,43.08
2023-04-29T10:54:49.969Z,43.10
2023-04-29T10:55:49.909Z,43.07
2023-04-29T10:56:49.941Z,43.08
2023-04-29T10:57:49.887Z,43.05
2023-04-29T10:58:49.904Z,43.06
2023-04-29T10:59:49.890Z,43.04
2023-04-29T11:00:50.014Z,43.06
2023-04-29T11:01:49.913Z,43.00
2023-04-29T11:02:49.986Z,42.97
2023-04-29T11:03:50.027Z,42.99
2023-04-29T11:04:50.008Z,43.01
2023-04-29T11:05:49.856Z,42.98
2023-04-29T11:06:49.866Z,42.99
2023-04-29T11:07:49.818Z,42.94
2023-04-29T11:08:49.877Z,42.92
2023-04-29T11:09:49.824Z,42.94
2023-04-29T11:10:49.817Z,42.92
2023-04-29T11:11:49.876Z,42.93
2023-04-29T11:12:49.825Z,42.94
2023-04-29T11:13:49.846Z,42.93
2023-04-29T11:14:49.816Z,42.92
2023-04-29T11:15:49.811Z,42.95
2023-04-29T11:16:49.854Z,42.96
2023-04-29T11:17:49.850Z,42.93
2023-04-29T11:18:49.758Z,42.93
2023-04-29T11:19:49.769Z,42.93
2023-04-29T11:20:49.735Z,42.91
2023-04-29T11:21:49.760Z,42.94
2023-04-29T11:22:49.742Z,42.95
2023-04-29T11:23:49.727Z,42.97
2023-04-29T11:24:49.752Z,42.95
2023-04-29T11:25:49.723Z,42.93
2023-04-29T11:26:49.732Z,42.90
2023-04-29T11:27:49.696Z,42.88
2023-04-29T11:28:49.726Z,42.87
2023-04-29T11:29:49.694Z,42.89
2023-04-29T11:30:49.696Z,42.87
2023-04-29T11:31:49.794Z,42.88
2023-04-29T11:32:49.721Z,42.89
2023-04-29T11:33:49.657Z,42.87
2023-04-29T11:34:49.677Z,42.87
2023-04-29T11:35:49.677Z,42.91
2023-04-29T11:36:49.629Z,42.92
2023-04-29T11:37:49.661Z,42.91
2023-04-29T11:38:49.669Z,42.93
2023-04-29T11:39:49.631Z,42.93
2023-04-29T11:40:49.638Z,42.89
2023-04-29T11:41:51.235Z,42.88
2023-04-29T11:42:49.694Z,42.83
2023-04-29T11:43:49.620Z,42.82
2023-04-29T11:44:49.585Z,42.83
2023-04-29T11:45:49.656Z,42.83
2023-04-29T11:46:49.607Z,42.84
2023-04-29T11:47:49.629Z,42.87
2023-04-29T11:48:49.552Z,42.82
2023-04-29T11:49:49.571Z,42.80
2023-04-29T11:50:49.597Z,42.82
2023-04-29T11:51:49.574Z,42.81
2023-04-29T11:52:49.589Z,42.76
2023-04-29T11:53:49.557Z,42.76
2023-04-29T11:54:49.558Z,42.74
2023-04-29T11:55:49.523Z,42.75
2023-04-29T11:56:49.501Z,42.74
2023-04-29T11:57:49.499Z,42.72
2023-04-29T11:58:49.521Z,42.68
2023-04-29T11:59:49.515Z,42.64
2023-04-29T12:00:49.516Z,42.61
2023-04-29T12:01:49.510Z,42.57
2023-04-29T12:02:49.598Z,42.56
2023-04-29T12:03:49.604Z,42.58
2023-04-29T12:04:49.520Z,42.55
2023-04-29T12:05:49.537Z,42.55
2023-04-29T12:06:49.449Z,42.52
2023-04-29T12:07:49.453Z,42.50
2023-04-29T12:08:49.444Z,42.50
2023-04-29T12:09:49.445Z,42.49
2023-04-29T12:10:49.426Z,42.47
2023-04-29T12:11:49.422Z,42.48
2023-04-29T12:12:49.418Z,42.48
2023-04-29T12:13:49.415Z,42.44
2023-04-29T12:14:49.400Z,42.47
2023-04-29T12:15:49.407Z,42.47
2023-04-29T12:16:49.411Z,42.43
2023-04-29T12:17:49.408Z,42.44
2023-04-29T12:18:49.362Z,42.38
2023-04-29T12:19:49.382Z,42.41
2023-04-29T12:20:49.356Z,42.39
2023-04-29T12:21:49.382Z,42.36
2023-04-29T12:22:49.344Z,42.28
2023-04-29T12:23:49.337Z,42.26
2023-04-29T12:24:49.350Z,42.24
2023-04-29T12:25:49.339Z,42.21
2023-04-29T12:26:49.410Z,42.23
2023-04-29T12:27:49.468Z,42.19
2023-04-29T12:28:49.515Z,42.17
2023-04-29T12:29:49.567Z,42.16
2023-04-29T12:30:49.652Z,42.15
2023-04-29T12:31:49.752Z,42.14
2023-04-29T12:32:49.854Z,42.12
2023-04-29T12:33:49.815Z,42.11
2023-04-29T12:34:49.890Z,42.08
2023-04-29T12:35:49.953Z,42.06
2023-04-29T12:36:50.048Z,42.02
2023-04-29T12:37:50.084Z,42.05
2023-04-29T12:38:50.116Z,42.06
2023-04-29T12:39:50.196Z,42.00
2023-04-29T12:40:50.228Z,41.99
2023-04-29T12:41:50.290Z,41.97
2023-04-29T12:42:50.383Z,41.95
2023-04-29T12:43:50.391Z,41.92
2023-04-29T12:44:50.514Z,41.91
2023-04-29T12:45:50.521Z,41.88
2023-04-29T12:46:50.625Z,41.91
2023-04-29T12:47:50.644Z,41.93
2023-04-29T12:48:50.716Z,41.93
2023-04-29T12:49:50.755Z,41.92
2023-04-29T12:50:50.813Z,41.91
2023-04-29T12:51:50.938Z,41.91
2023-04-29T12:52:50.951Z,41.91